Haugen, Minnesota
Current Conditions -  °F | °C
As of 4:07 PM on Wednesday 28 Jan 2015 (Local Time) from KHZX Reporting Station
Overcast Overcast  
Wind Chill: 23°   Ceiling: 1000
Heat Index: 30°   Visibility: 4mi
Dew Point: 27°   Wind: 8mph
Humidity: 86%   Direction: 190°S
Pressure: 29.81"   Gusts: NA
Location:  46.6404°N, 93.1222°W
Report Text: KHZX 282207Z AUTO 19007KT 4SM OVC010 M01/M03 A2981 RMK AO2
Loading
Personal Weather Stations






























Interactive Weather Map New forecast layout! Learn more

10-Day Weather Forecast

Advertisements
Track Severe Weather on mobile